Time;durP1;ratioP1;P1;durP2;ratioP2;P2;SDS_P1;SDS_P2;PMS_P1;PMS_P2;Temp;Humidity;BMP_temperature;BMP_pressure;BME280_temperature;BME280_humidity;BME280_pressure;Samples;Min_cycle;Max_cycle;Signal;HPM_P1;HPM_P2
2023/06/02 00:03:03;;;;;;;;;;;11.40;99.90;;;;;;8354964;28;19920;-79
2023/06/02 00:07:04;;;;;;;;;;;11.20;99.90;;;;;;8359893;28;19916;-79
2023/06/02 00:11:05;;;;;;;;;;;10.90;99.90;;;;;;8367391;28;20517;-79
2023/06/02 00:15:07;;;;;;;;;;;10.90;99.90;;;;;;8376589;28;19920;-78
2023/06/02 00:19:07;;;;;;;;;;;10.80;99.90;;;;;;8362315;28;19924;-78
2023/06/02 00:23:08;;;;;;;;;;;10.70;99.90;;;;;;8353758;28;19948;-78
2023/06/02 00:27:09;;;;;;;;;;;10.70;99.90;;;;;;8376225;28;19920;-77
2023/06/02 00:31:10;;;;;;;;;;;10.70;99.90;;;;;;8383568;28;19912;-79
2023/06/02 00:35:10;;;;;;;;;;;10.90;99.90;;;;;;8359138;28;19920;-78
2023/06/02 00:39:11;;;;;;;;;;;10.80;99.90;;;;;;8343239;28;19943;-79
2023/06/02 00:43:11;;;;;;;;;;;10.60;99.90;;;;;;8365508;28;19920;-79
2023/06/02 00:47:12;;;;;;;;;;;10.60;99.90;;;;;;8374685;28;19912;-78
2023/06/02 00:51:12;;;;;;;;;;;10.50;99.90;;;;;;8380261;28;19930;-79
2023/06/02 00:55:13;;;;;;;;;;;10.20;99.90;;;;;;8364988;28;20339;-79
2023/06/02 00:59:14;;;;;;;;;;;10.00;99.90;;;;;;8367271;28;19947;-78
2023/06/02 01:03:15;;;;;;;;;;;9.70;99.90;;;;;;8358561;28;19975;-79
2023/06/02 01:07:22;;;;;;;;;;;9.70;99.90;;;;;;8364155;28;20042;-79
2023/06/02 01:11:23;;;;;;;;;;;9.90;99.90;;;;;;8385394;28;19939;-80
2023/06/02 01:15:24;;;;;;;;;;;9.90;99.90;;;;;;8370355;28;19987;-78
2023/06/02 01:19:25;;;;;;;;;;;9.70;99.90;;;;;;8361614;28;19966;-78
2023/06/02 01:23:29;;;;;;;;;;;9.60;99.90;;;;;;8371444;28;20376;-79
2023/06/02 01:27:29;;;;;;;;;;;9.40;99.90;;;;;;8363975;28;20325;-79
2023/06/02 01:31:33;;;;;;;;;;;9.30;99.90;;;;;;8353512;28;19908;-78
2023/06/02 01:35:37;;;;;;;;;;;9.20;99.90;;;;;;8371987;28;19909;-79
2023/06/02 01:39:39;;;;;;;;;;;9.40;99.90;;;;;;8345715;28;20285;-80
2023/06/02 01:43:40;;;;;;;;;;;9.50;99.90;;;;;;8371148;28;19913;-78
2023/06/02 01:47:41;;;;;;;;;;;9.50;99.90;;;;;;8338916;28;19913;-80
2023/06/02 01:51:41;;;;;;;;;;;9.60;99.90;;;;;;8361427;28;19952;-78
2023/06/02 01:55:42;;;;;;;;;;;9.60;99.90;;;;;;8358882;28;20024;-79
2023/06/02 01:59:42;;;;;;;;;;;9.70;99.90;;;;;;8368438;28;19917;-78
2023/06/02 02:03:43;;;;;;;;;;;9.60;99.90;;;;;;8349511;28;19917;-79
2023/06/02 02:07:44;;;;;;;;;;;9.50;99.90;;;;;;8360768;28;20278;-79
2023/06/02 02:11:44;;;;;;;;;;;9.30;99.90;;;;;;8360146;28;19958;-79
2023/06/02 02:15:45;;;;;;;;;;;9.30;99.90;;;;;;8357172;28;20364;-81
2023/06/02 02:19:50;;;;;;;;;;;9.00;99.90;;;;;;8380324;28;20327;-79
2023/06/02 02:23:50;;;;;;;;;;;9.00;99.90;;;;;;8390165;28;19912;-78
2023/06/02 02:27:51;;;;;;;;;;;8.90;99.90;;;;;;8362091;28;19916;-79
2023/06/02 02:31:51;;;;;;;;;;;8.80;99.90;;;;;;8368497;28;19920;-79
2023/06/02 02:35:53;;;;;;;;;;;8.80;99.90;;;;;;8376223;28;20015;-78
2023/06/02 02:39:53;;;;;;;;;;;8.60;99.90;;;;;;8357108;28;19978;-78
2023/06/02 02:43:54;;;;;;;;;;;8.50;99.90;;;;;;8368094;28;20240;-79
2023/06/02 02:47:54;;;;;;;;;;;8.40;99.90;;;;;;8370953;28;19908;-78
2023/06/02 02:51:56;;;;;;;;;;;8.50;99.90;;;;;;8362044;28;19916;-78
2023/06/02 02:55:57;;;;;;;;;;;8.30;99.90;;;;;;8358065;28;19925;-78
2023/06/02 02:59:58;;;;;;;;;;;8.20;99.90;;;;;;8365947;28;19920;-78
2023/06/02 03:03:58;;;;;;;;;;;8.10;99.90;;;;;;8356302;28;19912;-79
2023/06/02 03:08:01;;;;;;;;;;;8.10;99.90;;;;;;8377033;28;19915;-78
2023/06/02 03:12:01;;;;;;;;;;;8.40;99.90;;;;;;8363151;28;19909;-78
2023/06/02 03:16:02;;;;;;;;;;;8.30;99.90;;;;;;8370428;28;19916;-78
2023/06/02 03:20:08;;;;;;;;;;;8.10;99.90;;;;;;8374699;28;19917;-78
2023/06/02 03:24:18;;;;;;;;;;;8.00;99.90;;;;;;8368475;28;19940;-79
2023/06/02 03:28:19;;;;;;;;;;;7.90;99.90;;;;;;8366703;28;19917;-78
2023/06/02 03:32:19;;;;;;;;;;;7.90;99.90;;;;;;8355153;28;19912;-77
2023/06/02 03:36:20;;;;;;;;;;;7.90;99.90;;;;;;8354694;28;20320;-78
2023/06/02 03:40:20;;;;;;;;;;;8.00;99.90;;;;;;8351802;28;19917;-78
2023/06/02 03:44:21;;;;;;;;;;;8.00;99.90;;;;;;8345691;28;19963;-78
2023/06/02 03:48:21;;;;;;;;;;;8.10;99.90;;;;;;8348451;28;19970;-78
2023/06/02 03:52:24;;;;;;;;;;;8.20;99.90;;;;;;8368426;28;19913;-78
2023/06/02 03:56:25;;;;;;;;;;;8.50;99.90;;;;;;8362691;28;19923;-78
2023/06/02 04:00:25;;;;;;;;;;;8.80;99.90;;;;;;8366780;28;19928;-78
2023/06/02 04:04:26;;;;;;;;;;;9.10;99.90;;;;;;8335624;28;19920;-78
2023/06/02 04:08:26;;;;;;;;;;;9.50;99.90;;;;;;8376768;28;20342;-78
2023/06/02 04:12:27;;;;;;;;;;;9.80;99.90;;;;;;8369824;28;19913;-79
2023/06/02 04:16:27;;;;;;;;;;;10.00;99.90;;;;;;8352395;28;19965;-79
2023/06/02 04:20:28;;;;;;;;;;;10.50;99.90;;;;;;8357001;28;19983;-79
2023/06/02 04:24:28;;;;;;;;;;;11.30;99.90;;;;;;8357341;28;20016;-78
2023/06/02 04:28:29;;;;;;;;;;;12.20;99.90;;;;;;8331333;28;19917;-78
2023/06/02 04:32:30;;;;;;;;;;;12.50;99.90;;;;;;8321611;28;19964;-79
2023/06/02 04:36:31;;;;;;;;;;;12.70;99.90;;;;;;8341718;28;19921;-80
2023/06/02 04:40:31;;;;;;;;;;;13.40;99.90;;;;;;8334718;28;19917;-80
2023/06/02 04:44:31;;;;;;;;;;;14.10;99.90;;;;;;8344368;28;19913;-82
2023/06/02 04:48:32;;;;;;;;;;;14.90;99.90;;;;;;8347187;28;19972;-80
2023/06/02 04:52:32;;;;;;;;;;;15.20;99.90;;;;;;8343840;28;20003;-81
2023/06/02 04:56:34;;;;;;;;;;;15.30;99.90;;;;;;8328892;28;19924;-81
2023/06/02 05:00:34;;;;;;;;;;;15.70;99.90;;;;;;8329388;28;19921;-82
2023/06/02 05:04:35;;;;;;;;;;;15.90;99.90;;;;;;8332262;28;20293;-82
2023/06/02 05:08:35;;;;;;;;;;;16.20;99.90;;;;;;8350121;28;20365;-80
2023/06/02 05:12:38;;;;;;;;;;;17.20;99.90;;;;;;8361138;28;19991;-81
2023/06/02 05:16:42;;;;;;;;;;;17.60;99.90;;;;;;8366186;28;19909;-81
2023/06/02 05:20:42;;;;;;;;;;;17.60;99.90;;;;;;8359734;28;20007;-81
2023/06/02 05:24:43;;;;;;;;;;;17.90;99.90;;;;;;8354540;28;19917;-82
2023/06/02 05:28:43;;;;;;;;;;;18.00;99.90;;;;;;8343723;28;19908;-81
2023/06/02 05:32:44;;;;;;;;;;;18.80;99.90;;;;;;8330734;28;20072;-82
2023/06/02 05:36:44;;;;;;;;;;;19.50;99.90;;;;;;8347113;28;20205;-82
2023/06/02 05:40:45;;;;;;;;;;;20.20;99.90;;;;;;8355433;28;20388;-81
2023/06/02 05:44:45;;;;;;;;;;;20.50;99.90;;;;;;8329700;28;19909;-82
2023/06/02 05:48:46;;;;;;;;;;;21.30;99.90;;;;;;8378270;28;19925;-82
2023/06/02 05:52:46;;;;;;;;;;;21.80;99.90;;;;;;8349265;28;20396;-82
2023/06/02 05:56:46;;;;;;;;;;;22.50;99.90;;;;;;8352931;28;19923;-82
2023/06/02 06:00:47;;;;;;;;;;;22.50;99.90;;;;;;8362158;28;20421;-81
2023/06/02 06:04:47;;;;;;;;;;;22.70;99.40;;;;;;8360773;28;19922;-81
2023/06/02 06:08:48;;;;;;;;;;;22.40;99.20;;;;;;8336498;28;19913;-81
2023/06/02 06:12:48;;;;;;;;;;;22.50;96.70;;;;;;8319715;28;19921;-81
2023/06/02 06:16:49;;;;;;;;;;;22.30;98.00;;;;;;8350568;28;19931;-81
2023/06/02 06:20:49;;;;;;;;;;;22.10;97.00;;;;;;8335229;28;19925;-81
2023/06/02 06:24:50;;;;;;;;;;;22.10;99.20;;;;;;8320107;28;20290;-82
2023/06/02 06:28:50;;;;;;;;;;;22.70;98.90;;;;;;8367877;28;19919;-80
2023/06/02 06:32:51;;;;;;;;;;;22.70;95.50;;;;;;8382324;28;20294;-82
2023/06/02 06:36:51;;;;;;;;;;;22.70;98.00;;;;;;8345866;28;20138;-80
2023/06/02 06:40:54;;;;;;;;;;;23.20;93.70;;;;;;8353431;28;20296;-80
2023/06/02 06:44:54;;;;;;;;;;;23.50;94.50;;;;;;8338512;28;19924;-80
2023/06/02 06:48:55;;;;;;;;;;;23.60;94.20;;;;;;8327677;28;19913;-81
2023/06/02 06:52:55;;;;;;;;;;;23.50;94.20;;;;;;8367454;28;20373;-80
2023/06/02 06:56:56;;;;;;;;;;;23.40;92.40;;;;;;8338557;28;20198;-82
2023/06/02 07:00:57;;;;;;;;;;;23.60;95.00;;;;;;8355425;28;20011;-80
2023/06/02 07:04:57;;;;;;;;;;;24.30;91.10;;;;;;8352605;28;19939;-82
2023/06/02 07:08:58;;;;;;;;;;;24.30;91.90;;;;;;8331150;28;19919;-80
2023/06/02 07:12:58;;;;;;;;;;;24.00;93.00;;;;;;8338537;28;19913;-82
2023/06/02 07:16:59;;;;;;;;;;;24.20;91.60;;;;;;8351727;28;19920;-81
2023/06/02 07:20:59;;;;;;;;;;;24.00;93.20;;;;;;8353952;28;19964;-81
2023/06/02 07:25:00;;;;;;;;;;;24.70;90.70;;;;;;8346295;28;19917;-82
2023/06/02 07:29:01;;;;;;;;;;;24.70;89.10;;;;;;8325506;28;19944;-81
2023/06/02 07:33:01;;;;;;;;;;;24.60;92.10;;;;;;8316215;28;19920;-79
2023/06/02 07:37:02;;;;;;;;;;;24.40;89.50;;;;;;8332913;28;19917;-80
2023/06/02 07:41:03;;;;;;;;;;;24.30;87.50;;;;;;8319766;28;19920;-80
2023/06/02 07:45:05;;;;;;;;;;;24.70;89.70;;;;;;8323269;28;21579;-80
2023/06/02 07:49:06;;;;;;;;;;;24.70;90.90;;;;;;8334780;28;19971;-80
2023/06/02 07:53:06;;;;;;;;;;;24.90;90.40;;;;;;8338964;28;20071;-79
2023/06/02 07:57:07;;;;;;;;;;;25.00;93.00;;;;;;8333119;28;19948;-80
2023/06/02 08:01:07;;;;;;;;;;;25.00;90.00;;;;;;8323293;28;20365;-81
2023/06/02 08:05:08;;;;;;;;;;;25.20;87.30;;;;;;8355816;28;19987;-80
2023/06/02 08:09:08;;;;;;;;;;;25.90;86.00;;;;;;8363082;28;19917;-84
2023/06/02 08:13:15;;;;;;;;;;;26.30;88.30;;;;;;8318449;28;20472;-84
2023/06/02 08:17:15;;;;;;;;;;;26.40;86.20;;;;;;8343074;28;19917;-83
2023/06/02 08:21:16;;;;;;;;;;;26.60;82.50;;;;;;8338453;28;20461;-84
2023/06/02 08:25:17;;;;;;;;;;;26.70;82.60;;;;;;8323776;28;20274;-83
2023/06/02 08:29:17;;;;;;;;;;;26.30;83.50;;;;;;8322345;28;19913;-84
2023/06/02 08:33:18;;;;;;;;;;;26.30;85.10;;;;;;8329789;28;19909;-85
2023/06/02 08:37:20;;;;;;;;;;;26.10;85.50;;;;;;8350007;28;19917;-84
2023/06/02 08:41:20;;;;;;;;;;;25.80;79.60;;;;;;8324247;28;20380;-85
2023/06/02 08:45:22;;;;;;;;;;;25.70;83.60;;;;;;8324996;28;19909;-83
2023/06/02 08:49:22;;;;;;;;;;;25.50;86.60;;;;;;8328868;28;19960;-83
2023/06/02 08:53:23;;;;;;;;;;;25.50;87.50;;;;;;8326870;28;19940;-84
2023/06/02 08:57:23;;;;;;;;;;;25.30;84.80;;;;;;8363182;28;19962;-81
2023/06/02 09:01:24;;;;;;;;;;;25.10;88.40;;;;;;8330831;28;19939;-83
2023/06/02 09:05:27;;;;;;;;;;;25.20;84.40;;;;;;8329295;28;20258;-84
2023/06/02 09:09:37;;;;;;;;;;;25.10;84.20;;;;;;8355123;28;19909;-83
2023/06/02 09:13:40;;;;;;;;;;;24.90;85.80;;;;;;8347043;28;19966;-84
2023/06/02 09:17:40;;;;;;;;;;;24.70;88.80;;;;;;8340207;28;19912;-83
2023/06/02 09:21:41;;;;;;;;;;;24.60;91.60;;;;;;8332459;28;19924;-83
2023/06/02 09:25:43;;;;;;;;;;;24.40;91.30;;;;;;8349892;28;20488;-85
2023/06/02 09:29:44;;;;;;;;;;;24.10;87.80;;;;;;8377625;28;19913;-84
2023/06/02 09:33:55;;;;;;;;;;;24.10;89.10;;;;;;8346714;28;19920;-83
2023/06/02 09:37:57;;;;;;;;;;;24.30;90.70;;;;;;8355519;28;19960;-84
2023/06/02 09:41:58;;;;;;;;;;;24.60;85.20;;;;;;8364790;28;19924;-84
2023/06/02 09:46:00;;;;;;;;;;;24.60;86.00;;;;;;8362746;28;19967;-83
2023/06/02 09:50:00;;;;;;;;;;;24.60;84.70;;;;;;8331351;28;19959;-84
2023/06/02 09:54:01;;;;;;;;;;;24.40;87.70;;;;;;8329461;28;19959;-83
2023/06/02 09:58:02;;;;;;;;;;;24.70;92.40;;;;;;8342541;28;19924;-83
2023/06/02 10:02:03;;;;;;;;;;;25.10;87.00;;;;;;8360542;28;19931;-83
2023/06/02 10:06:09;;;;;;;;;;;24.90;85.40;;;;;;8342967;28;19919;-82
2023/06/02 10:10:30;;;;;;;;;;;25.30;90.70;;;;;;8364291;28;19935;-83
2023/06/02 10:14:36;;;;;;;;;;;25.10;84.40;;;;;;8351592;28;20292;-82
2023/06/02 10:19:01;;;;;;;;;;;25.00;88.30;;;;;;8352705;28;19928;-79
2023/06/02 10:23:20;;;;;;;;;;;25.20;87.00;;;;;;8331299;28;19975;-78
2023/06/02 10:27:30;;;;;;;;;;;25.30;85.70;;;;;;8332216;28;19913;-79
2023/06/02 10:31:33;;;;;;;;;;;24.80;87.80;;;;;;8336022;28;19913;-80
2023/06/02 10:35:52;;;;;;;;;;;25.00;85.40;;;;;;8357145;28;19912;-78
2023/06/02 10:39:54;;;;;;;;;;;25.60;85.50;;;;;;8347167;28;19917;-78
2023/06/02 10:44:13;;;;;;;;;;;26.40;79.00;;;;;;8364217;28;19924;-79
2023/06/02 10:48:32;;;;;;;;;;;26.50;80.60;;;;;;8338490;28;19935;-80
2023/06/02 10:52:51;;;;;;;;;;;26.70;80.90;;;;;;8330983;28;19921;-79
2023/06/02 10:56:56;;;;;;;;;;;27.10;76.20;;;;;;8342435;28;19916;-78
2023/06/02 11:00:57;;;;;;;;;;;27.10;78.60;;;;;;8320896;28;19925;-78
2023/06/02 11:05:19;;;;;;;;;;;26.70;84.60;;;;;;8327941;28;19916;-79
2023/06/02 11:09:32;;;;;;;;;;;27.40;83.20;;;;;;8328902;28;19909;-79
2023/06/02 11:13:52;;;;;;;;;;;28.20;82.90;;;;;;8340664;28;19990;-77
2023/06/02 11:17:53;;;;;;;;;;;27.70;71.00;;;;;;8364761;28;19917;-79
2023/06/02 11:22:04;;;;;;;;;;;28.10;76.30;;;;;;8355028;28;20316;-79
2023/06/02 11:26:05;;;;;;;;;;;27.70;80.60;;;;;;8375926;28;20484;-78
2023/06/02 11:30:07;;;;;;;;;;;30.00;70.40;;;;;;8363518;28;19909;-78
2023/06/02 11:34:14;;;;;;;;;;;30.80;62.30;;;;;;8360210;28;19915;-82
2023/06/02 11:38:16;;;;;;;;;;;31.10;71.90;;;;;;8343954;28;20353;-79
2023/06/02 11:42:17;;;;;;;;;;;30.90;63.20;;;;;;8354867;28;19916;-79
2023/06/02 11:46:18;;;;;;;;;;;30.30;62.60;;;;;;8350938;28;19919;-80
2023/06/02 11:50:19;;;;;;;;;;;28.90;65.40;;;;;;8356172;28;19917;-80
2023/06/02 11:54:19;;;;;;;;;;;27.60;66.60;;;;;;8334657;28;19924;-79
2023/06/02 11:58:23;;;;;;;;;;;27.80;72.70;;;;;;8343148;28;19927;-78
2023/06/02 12:02:25;;;;;;;;;;;29.10;59.50;;;;;;8362724;28;19970;-80
2023/06/02 12:06:26;;;;;;;;;;;30.50;61.50;;;;;;8351929;28;19975;-79
2023/06/02 12:10:30;;;;;;;;;;;31.90;59.90;;;;;;8330492;28;19913;-78
2023/06/02 12:14:36;;;;;;;;;;;30.60;65.30;;;;;;8345529;28;20002;-79
2023/06/02 12:18:37;;;;;;;;;;;30.80;63.50;;;;;;8349297;28;19994;-78
2023/06/02 12:22:54;;;;;;;;;;;31.40;61.00;;;;;;8364236;28;20446;-78
2023/06/02 12:26:54;;;;;;;;;;;31.00;55.10;;;;;;8352251;28;20009;-78
2023/06/02 12:30:55;;;;;;;;;;;30.80;60.50;;;;;;8350887;28;19935;-76
2023/06/02 12:34:55;;;;;;;;;;;29.80;62.80;;;;;;8348277;28;19909;-77
2023/06/02 12:38:56;;;;;;;;;;;28.40;63.10;;;;;;8364285;28;19912;-78
2023/06/02 12:42:56;;;;;;;;;;;26.60;70.60;;;;;;8349028;28;19980;-78
2023/06/02 12:46:57;;;;;;;;;;;25.90;67.50;;;;;;8331825;28;20366;-80
2023/06/02 12:50:57;;;;;;;;;;;26.30;70.10;;;;;;8349319;28;19992;-80
2023/06/02 12:54:58;;;;;;;;;;;28.00;66.30;;;;;;8327766;28;20531;-78
2023/06/02 12:58:58;;;;;;;;;;;30.50;62.40;;;;;;8361697;28;19942;-76
2023/06/02 13:02:58;;;;;;;;;;;30.20;59.10;;;;;;8349800;28;19921;-78
2023/06/02 13:07:01;;;;;;;;;;;30.50;57.40;;;;;;8353990;28;20469;-78
2023/06/02 13:11:02;;;;;;;;;;;31.80;62.60;;;;;;8346969;28;19944;-78
2023/06/02 13:15:05;;;;;;;;;;;33.80;53.90;;;;;;8375893;28;20537;-79
2023/06/02 13:19:05;;;;;;;;;;;36.00;54.00;;;;;;8369629;28;19909;-79
2023/06/02 13:23:06;;;;;;;;;;;35.90;47.30;;;;;;8364227;28;19963;-79
2023/06/02 13:27:06;;;;;;;;;;;35.60;49.40;;;;;;8334834;28;19920;-77
2023/06/02 13:31:07;;;;;;;;;;;35.30;48.70;;;;;;8319336;28;20637;-77
2023/06/02 13:35:08;;;;;;;;;;;33.50;52.60;;;;;;8339056;28;19963;-78
2023/06/02 13:39:08;;;;;;;;;;;31.50;53.60;;;;;;8346327;28;19920;-78
2023/06/02 13:43:09;;;;;;;;;;;29.40;58.30;;;;;;8326497;28;20301;-78
2023/06/02 13:47:10;;;;;;;;;;;28.10;60.00;;;;;;8323091;28;19913;-78
2023/06/02 13:51:10;;;;;;;;;;;31.00;55.40;;;;;;8323370;28;19913;-78
2023/06/02 13:55:12;;;;;;;;;;;33.40;50.80;;;;;;8323967;28;20584;-78
2023/06/02 13:59:12;;;;;;;;;;;33.30;49.60;;;;;;8325205;28;19941;-78
2023/06/02 14:03:13;;;;;;;;;;;31.40;54.90;;;;;;8345914;28;19920;-77
2023/06/02 14:07:13;;;;;;;;;;;32.20;53.80;;;;;;8372153;28;20054;-78
2023/06/02 14:11:14;;;;;;;;;;;32.20;51.60;;;;;;8371451;28;20373;-79
2023/06/02 14:15:15;;;;;;;;;;;32.30;50.90;;;;;;8356322;28;19912;-78
2023/06/02 14:19:15;;;;;;;;;;;32.90;51.30;;;;;;8376252;28;19913;-82
2023/06/02 14:23:16;;;;;;;;;;;35.10;47.60;;;;;;8367689;28;19944;-80
2023/06/02 14:27:16;;;;;;;;;;;34.50;47.70;;;;;;8379451;28;19916;-80
2023/06/02 14:31:18;;;;;;;;;;;32.60;51.10;;;;;;8376293;28;19948;-79
2023/06/02 14:35:18;;;;;;;;;;;32.40;52.70;;;;;;8372756;28;19944;-82
2023/06/02 14:39:19;;;;;;;;;;;31.50;53.30;;;;;;8347686;28;19916;-78
2023/06/02 14:43:19;;;;;;;;;;;31.00;55.40;;;;;;8373587;28;19917;-78
2023/06/02 14:47:20;;;;;;;;;;;33.20;52.20;;;;;;8358307;28;19913;-79
2023/06/02 14:51:20;;;;;;;;;;;33.10;50.30;;;;;;8372078;28;19960;-82
2023/06/02 14:55:21;;;;;;;;;;;33.10;52.90;;;;;;8326726;28;19924;-77
2023/06/02 14:59:21;;;;;;;;;;;31.30;55.60;;;;;;8340962;28;19909;-78
2023/06/02 15:03:22;;;;;;;;;;;32.10;55.20;;;;;;8327789;28;19917;-78
2023/06/02 15:07:22;;;;;;;;;;;31.10;53.50;;;;;;8324519;28;19917;-79
2023/06/02 15:11:23;;;;;;;;;;;28.30;58.90;;;;;;8330012;28;19974;-78
2023/06/02 15:15:24;;;;;;;;;;;27.60;61.00;;;;;;8324277;28;19920;-78
2023/06/02 15:19:24;;;;;;;;;;;30.00;56.40;;;;;;8329495;28;19960;-76
2023/06/02 15:23:25;;;;;;;;;;;30.40;55.10;;;;;;8331124;28;19920;-78
2023/06/02 15:27:25;;;;;;;;;;;29.80;56.20;;;;;;8321605;28;19936;-79
2023/06/02 15:31:25;;;;;;;;;;;29.60;60.10;;;;;;8338305;28;20284;-78
2023/06/02 15:35:26;;;;;;;;;;;29.00;58.30;;;;;;8320370;28;19935;-77
2023/06/02 15:39:27;;;;;;;;;;;28.40;57.10;;;;;;8332358;28;19913;-78
2023/06/02 15:43:27;;;;;;;;;;;27.50;60.00;;;;;;8344319;28;19921;-76
2023/06/02 15:47:28;;;;;;;;;;;26.10;62.90;;;;;;8312314;28;20431;-77
2023/06/02 15:51:28;;;;;;;;;;;25.10;65.90;;;;;;8332090;28;19917;-78
2023/06/02 15:55:29;;;;;;;;;;;24.60;69.40;;;;;;8336427;28;19999;-78
2023/06/02 15:59:29;;;;;;;;;;;24.20;70.20;;;;;;8345776;28;19912;-77
2023/06/02 16:03:30;;;;;;;;;;;24.10;70.30;;;;;;8337027;28;20362;-78
2023/06/02 16:07:30;;;;;;;;;;;24.10;71.00;;;;;;8317721;28;19913;-80
2023/06/02 16:11:31;;;;;;;;;;;23.90;72.50;;;;;;8321556;28;19979;-80
2023/06/02 16:15:31;;;;;;;;;;;23.70;72.30;;;;;;8320854;28;19921;-80
2023/06/02 16:19:32;;;;;;;;;;;23.70;71.00;;;;;;8336693;28;19917;-78
2023/06/02 16:23:32;;;;;;;;;;;23.70;71.10;;;;;;8363558;28;21057;-78
2023/06/02 16:27:34;;;;;;;;;;;23.70;71.30;;;;;;8357443;28;19921;-79
2023/06/02 16:31:35;;;;;;;;;;;23.60;71.40;;;;;;8379029;28;19913;-78
2023/06/02 16:35:35;;;;;;;;;;;23.50;71.70;;;;;;8350908;28;20001;-78
2023/06/02 16:39:36;;;;;;;;;;;23.50;74.20;;;;;;8353611;28;20289;-79
2023/06/02 16:43:36;;;;;;;;;;;23.50;76.30;;;;;;8368022;28;19927;-78
2023/06/02 16:47:36;;;;;;;;;;;23.30;74.70;;;;;;8354470;28;19947;-79
2023/06/02 16:51:37;;;;;;;;;;;23.30;74.70;;;;;;8374568;28;19919;-79
2023/06/02 16:55:37;;;;;;;;;;;23.30;76.10;;;;;;8348991;28;20412;-79
2023/06/02 16:59:38;;;;;;;;;;;22.90;75.50;;;;;;8388758;28;19972;-78
2023/06/02 17:03:38;;;;;;;;;;;22.50;77.50;;;;;;8357604;28;20078;-78
2023/06/02 17:07:39;;;;;;;;;;;22.40;77.10;;;;;;8344814;28;19921;-79
2023/06/02 17:11:39;;;;;;;;;;;22.40;79.90;;;;;;8356617;28;20344;-78
2023/06/02 17:15:40;;;;;;;;;;;21.80;79.00;;;;;;8365776;28;19997;-78
2023/06/02 17:19:41;;;;;;;;;;;22.00;81.10;;;;;;8361429;28;19913;-78
2023/06/02 17:23:41;;;;;;;;;;;21.80;79.80;;;;;;8376261;28;19935;-78
2023/06/02 17:27:43;;;;;;;;;;;21.80;80.70;;;;;;8361016;28;19913;-79
2023/06/02 17:31:43;;;;;;;;;;;21.70;81.30;;;;;;8360173;28;19909;-79
2023/06/02 17:35:43;;;;;;;;;;;21.70;81.20;;;;;;8350315;28;19923;-77
2023/06/02 17:39:44;;;;;;;;;;;21.40;81.40;;;;;;8369858;28;20535;-78
2023/06/02 17:43:45;;;;;;;;;;;21.30;81.00;;;;;;8343783;28;19924;-79
2023/06/02 17:47:47;;;;;;;;;;;21.20;81.90;;;;;;8368661;28;20286;-78
2023/06/02 17:51:47;;;;;;;;;;;21.10;84.70;;;;;;8353186;28;20381;-78
2023/06/02 17:55:48;;;;;;;;;;;21.20;82.80;;;;;;8359596;28;19955;-79
2023/06/02 17:59:50;;;;;;;;;;;20.90;83.30;;;;;;8334225;28;19912;-78
2023/06/02 18:03:51;;;;;;;;;;;21.00;83.80;;;;;;8364884;28;19999;-77
2023/06/02 18:07:51;;;;;;;;;;;20.60;84.10;;;;;;8364824;28;20400;-79
2023/06/02 18:11:52;;;;;;;;;;;20.70;85.50;;;;;;8364730;28;19912;-77
2023/06/02 18:15:52;;;;;;;;;;;20.40;85.50;;;;;;8368913;28;20267;-79
2023/06/02 18:19:53;;;;;;;;;;;20.20;86.50;;;;;;8349393;28;19919;-79
2023/06/02 18:23:57;;;;;;;;;;;20.20;87.90;;;;;;8342605;28;19921;-78
2023/06/02 18:27:58;;;;;;;;;;;20.00;88.40;;;;;;8354001;28;19913;-78
2023/06/02 18:31:58;;;;;;;;;;;19.80;89.70;;;;;;8339548;28;19981;-78
2023/06/02 18:35:58;;;;;;;;;;;19.60;90.00;;;;;;8325406;28;19913;-79
2023/06/02 18:39:59;;;;;;;;;;;19.50;91.10;;;;;;8345414;28;19952;-79
2023/06/02 18:44:00;;;;;;;;;;;19.20;91.50;;;;;;8324139;28;19917;-78
2023/06/02 18:48:00;;;;;;;;;;;19.10;91.80;;;;;;8331530;28;20278;-77
2023/06/02 18:52:02;;;;;;;;;;;19.10;92.40;;;;;;8331206;28;19958;-78
2023/06/02 18:56:02;;;;;;;;;;;18.70;93.00;;;;;;8341949;28;19917;-78
2023/06/02 19:00:05;;;;;;;;;;;18.50;93.60;;;;;;8353056;28;19909;-79
2023/06/02 19:04:10;;;;;;;;;;;18.40;92.50;;;;;;8338061;28;20432;-78
2023/06/02 19:08:11;;;;;;;;;;;18.30;93.20;;;;;;8346706;28;20413;-79
2023/06/02 19:12:11;;;;;;;;;;;18.10;94.00;;;;;;8380156;28;19954;-79
2023/06/02 19:16:12;;;;;;;;;;;18.00;93.50;;;;;;8357713;28;19928;-79
2023/06/02 19:20:12;;;;;;;;;;;17.90;93.70;;;;;;8388157;28;19909;-79
2023/06/02 19:24:13;;;;;;;;;;;17.80;94.10;;;;;;8382715;28;19963;-77
2023/06/02 19:28:13;;;;;;;;;;;17.60;94.70;;;;;;8343359;28;19927;-79
2023/06/02 19:32:14;;;;;;;;;;;17.30;95.30;;;;;;8381707;28;19912;-78
2023/06/02 19:36:14;;;;;;;;;;;17.00;96.80;;;;;;8351093;28;20366;-80
2023/06/02 19:40:15;;;;;;;;;;;16.70;97.50;;;;;;8362558;28;19966;-79
2023/06/02 19:44:16;;;;;;;;;;;16.50;97.70;;;;;;8365902;28;20381;-78
2023/06/02 19:48:16;;;;;;;;;;;16.20;98.60;;;;;;8347153;28;19920;-78
2023/06/02 19:52:17;;;;;;;;;;;15.70;99.90;;;;;;8356740;28;20372;-78
2023/06/02 19:56:17;;;;;;;;;;;15.40;99.90;;;;;;8361083;28;19923;-78
2023/06/02 20:00:18;;;;;;;;;;;15.10;99.90;;;;;;8366187;28;19908;-78
2023/06/02 20:04:18;;;;;;;;;;;15.00;99.90;;;;;;8343303;28;20023;-79
2023/06/02 20:08:19;;;;;;;;;;;15.20;99.90;;;;;;8377941;28;19916;-79
2023/06/02 20:12:19;;;;;;;;;;;14.80;99.90;;;;;;8359943;28;19913;-79
2023/06/02 20:16:20;;;;;;;;;;;14.60;99.90;;;;;;8359247;28;19920;-79
2023/06/02 20:20:20;;;;;;;;;;;14.60;99.90;;;;;;8362832;28;19962;-78
2023/06/02 20:24:21;;;;;;;;;;;14.50;99.90;;;;;;8355527;28;20012;-78
2023/06/02 20:28:21;;;;;;;;;;;14.40;99.90;;;;;;8360053;28;19963;-78
2023/06/02 20:32:22;;;;;;;;;;;14.10;99.90;;;;;;8342819;28;19916;-78
2023/06/02 20:36:22;;;;;;;;;;;14.00;99.90;;;;;;8343913;28;20440;-78
2023/06/02 20:40:23;;;;;;;;;;;13.80;99.90;;;;;;8339408;28;20270;-78
2023/06/02 20:44:23;;;;;;;;;;;13.80;99.90;;;;;;8338555;28;20416;-78
2023/06/02 20:48:24;;;;;;;;;;;13.70;99.90;;;;;;8356171;28;19961;-78
2023/06/02 20:52:24;;;;;;;;;;;13.80;99.90;;;;;;8379473;28;19920;-78
2023/06/02 20:56:25;;;;;;;;;;;13.80;99.90;;;;;;8366699;28;19939;-78
2023/06/02 21:00:26;;;;;;;;;;;13.80;99.90;;;;;;8350404;28;20423;-78
2023/06/02 21:04:26;;;;;;;;;;;13.50;99.90;;;;;;8352149;28;19948;-77
2023/06/02 21:08:26;;;;;;;;;;;13.30;99.90;;;;;;8362772;28;19921;-78
2023/06/02 21:12:27;;;;;;;;;;;13.10;99.90;;;;;;8372149;28;19908;-78
2023/06/02 21:16:29;;;;;;;;;;;13.00;99.90;;;;;;8350776;28;19913;-78
2023/06/02 21:20:30;;;;;;;;;;;13.00;99.90;;;;;;8373617;28;19916;-78
2023/06/02 21:24:31;;;;;;;;;;;12.90;99.90;;;;;;8362496;28;19969;-78
2023/06/02 21:28:32;;;;;;;;;;;12.70;99.90;;;;;;8362944;28;19908;-79
2023/06/02 21:32:32;;;;;;;;;;;12.60;99.90;;;;;;8361164;28;19959;-78
2023/06/02 21:36:33;;;;;;;;;;;12.40;99.90;;;;;;8354839;28;19913;-77
2023/06/02 21:40:33;;;;;;;;;;;12.40;99.90;;;;;;8360890;28;19921;-78
2023/06/02 21:44:33;;;;;;;;;;;12.40;99.90;;;;;;8381744;28;20357;-77
2023/06/02 21:48:34;;;;;;;;;;;12.30;99.90;;;;;;8357332;28;19923;-78
2023/06/02 21:52:35;;;;;;;;;;;12.30;99.90;;;;;;8371696;28;19982;-78
2023/06/02 21:56:35;;;;;;;;;;;12.20;99.90;;;;;;8352728;28;20089;-78
2023/06/02 22:00:36;;;;;;;;;;;12.10;99.90;;;;;;8377165;28;20305;-77
2023/06/02 22:04:36;;;;;;;;;;;12.30;99.90;;;;;;8350100;28;19977;-79
2023/06/02 22:08:36;;;;;;;;;;;12.60;99.90;;;;;;8366664;28;19912;-78
2023/06/02 22:12:37;;;;;;;;;;;12.70;99.90;;;;;;8343763;28;19913;-77
2023/06/02 22:16:37;;;;;;;;;;;13.00;99.90;;;;;;8383876;28;19909;-78
2023/06/02 22:20:38;;;;;;;;;;;13.20;99.90;;;;;;8356575;28;19917;-78
2023/06/02 22:24:38;;;;;;;;;;;13.20;99.90;;;;;;8369102;28;19958;-78
2023/06/02 22:28:39;;;;;;;;;;;13.00;99.90;;;;;;8362799;28;19909;-78
2023/06/02 22:32:39;;;;;;;;;;;12.90;99.90;;;;;;8348359;28;19913;-77
2023/06/02 22:36:40;;;;;;;;;;;12.90;99.90;;;;;;8349270;28;19909;-78
2023/06/02 22:40:40;;;;;;;;;;;12.90;99.90;;;;;;8337939;28;20023;-78
2023/06/02 22:44:41;;;;;;;;;;;12.90;99.90;;;;;;8342868;28;19912;-78
2023/06/02 22:48:41;;;;;;;;;;;12.80;99.90;;;;;;8353716;28;19935;-79
2023/06/02 22:52:42;;;;;;;;;;;12.70;99.90;;;;;;8339715;28;19923;-78
2023/06/02 22:56:42;;;;;;;;;;;12.80;99.90;;;;;;8364744;28;20451;-79
2023/06/02 23:00:43;;;;;;;;;;;12.80;99.90;;;;;;8349755;28;19949;-79
2023/06/02 23:04:43;;;;;;;;;;;12.70;99.90;;;;;;8356034;28;19943;-78
2023/06/02 23:08:44;;;;;;;;;;;12.50;99.90;;;;;;8357898;28;19920;-79
2023/06/02 23:12:44;;;;;;;;;;;12.30;99.90;;;;;;8357336;28;19912;-77
2023/06/02 23:16:47;;;;;;;;;;;12.30;99.90;;;;;;8373021;28;19909;-79
2023/06/02 23:20:47;;;;;;;;;;;12.30;99.90;;;;;;8345115;28;20017;-78
2023/06/02 23:24:50;;;;;;;;;;;12.10;99.90;;;;;;8358265;28;19909;-78
2023/06/02 23:28:51;;;;;;;;;;;11.90;99.90;;;;;;8337242;28;19960;-78